Terminal Aerodrome Forecast
Issued by NWS

Home | Current Version | Previous Version | Text Only | Print | Product List | Glossary On
Versions: 1 2 3 4 5 6 7 8 9 10 11 12 13 14 15 16
080
FTUS45 KABQ 251124
TAFSAF
TAF
KSAF 251124Z 2512/2612 36008KT P6SM BKN060
     FM251700 23009KT P6SM SCT060
     FM252100 24010KT P6SM VCTS BKN070CB
     FM260000 25010KT P6SM VCSH BKN070
     FM260300 17009KT P6SM BKN070
     FM260900 35005KT P6SM BKN080=

USA.gov is the U.S. government's official web portal to all federal, state and local government web resources and services.